Airfield :
LOGIN :

Register | Disclaimer

   EN    FR    IT 

 










Legend :    VFR   Marginal VFR   IFR   Intensive IFR   Very Intensive IFR
Visi :
Ceiling :
>= 8 km
>= 3000ft
5 to 8 km
1000 to 3000 ft
1500m to 5 km
500 to 1000 ft
800 to 1500m
200 to 500 ft
< 800m
< 200 ft
Symbols :   Thunderstorms  Fog  Heavy snow  Heavy precipitations  Wind > 20 kt
SIGMETs :     Misc.  Thunderstorms  Icing  Turbulence  Mountain Waves  Volcanic Ashes






- Airport Elevation : 33 ft
- IATA code : MHZ


EGUN - RAF Mildenhall

CURRENT METAR :
  • 291956Z 22012G18KT 9999 FEW039 BKN045 07/03 A2978 RMK SLPNO WND DATA ESTMD ALTSG ESTMD RVRNO $

TAF TAF EGUN
Valid from the 29 at 20:00 until the 31 at 02:00 UTC


292000Z 2920/3102 23015G25KT 9999 BKN020 QNH2977INS
BECMG 3000/3001 23010G25KT 9999 BKN015 QNH2969INS
BECMG 3005/3006 20010G20KT 9999 BKN008 QNH2952INS
BECMG 3010/3011 18010G15KT 9000 -SHRA BKN008 QNH2945INS
BECMG 3014/3015 23015G20KT 9999 NSW BKN015 QNH2945INS
TEMPO 3017/3022 25015G25KT TX11/3016Z TN06/3001Z



MET'MAP, your aeronautical weather chart ! - Copyright ORBIFLY December 2007 - Disclaimer

ORBIFLY MET'MAP TEAM :

Programming & Development : Alexandra Zaïnal
Concept & original design : Baudouin d'Aumeries
Assistance for programming : Marc-Olivier Méhu
Technical & hardware support : Manuel Goepfert

Contact : metmap@orbifly.com




SOURCES & CREDITS :

   NOAA